createdAt,value
2023-03-19T00:00:27.104Z,0.91
2023-03-19T00:02:53.869Z,0.91
2023-03-19T00:05:20.769Z,0.97
2023-03-19T00:07:47.638Z,0.89
2023-03-19T00:10:14.301Z,0.90
2023-03-19T00:12:41.490Z,0.81
2023-03-19T00:15:14.086Z,0.75
2023-03-19T00:17:41.785Z,0.51
2023-03-19T00:20:09.885Z,0.48
2023-03-19T00:22:36.594Z,0.42
2023-03-19T00:25:03.773Z,0.47
2023-03-19T00:27:30.642Z,0.29
2023-03-19T00:29:57.345Z,0.32
2023-03-19T00:32:23.960Z,0.19
2023-03-19T00:34:51.080Z,0.21
2023-03-19T00:37:18.285Z,0.22
2023-03-19T00:39:44.906Z,0.26
2023-03-19T00:42:11.921Z,0.35
2023-03-19T00:44:38.560Z,0.19
2023-03-19T00:47:06.949Z,0.10
2023-03-19T00:49:33.559Z,-0.15
2023-03-19T00:52:00.370Z,-0.22
2023-03-19T00:54:27.527Z,-0.05
2023-03-19T00:56:54.408Z,0.03
2023-03-19T00:59:21.120Z,0.01
2023-03-19T01:01:47.829Z,-0.03
2023-03-19T01:04:15.438Z,-0.20
2023-03-19T01:06:42.132Z,-0.26
2023-03-19T01:09:08.933Z,-0.49
2023-03-19T01:11:36.032Z,-0.31
2023-03-19T01:14:03.100Z,-0.38
2023-03-19T01:16:29.739Z,-0.46
2023-03-19T01:18:56.329Z,-0.46
2023-03-19T01:21:23.149Z,-0.49
2023-03-19T01:23:52.002Z,-0.48
2023-03-19T01:26:19.663Z,-0.49
2023-03-19T01:28:46.247Z,-0.40
2023-03-19T01:31:12.876Z,-0.40
2023-03-19T01:33:39.501Z,-0.64
2023-03-19T01:36:06.859Z,-0.70
2023-03-19T01:38:33.626Z,-0.75
2023-03-19T01:41:00.365Z,-0.99
2023-03-19T01:43:29.927Z,-1.07
2023-03-19T01:46:07.354Z,-1.21
2023-03-19T01:48:46.546Z,-1.13
2023-03-19T01:51:16.765Z,-1.20
2023-03-19T01:53:47.739Z,-0.99
2023-03-19T01:56:15.862Z,-0.96
2023-03-19T01:58:44.688Z,-1.09
2023-03-19T02:01:11.493Z,-1.15
2023-03-19T02:03:39.487Z,-1.07
2023-03-19T02:06:06.710Z,-1.00
2023-03-19T02:08:33.994Z,-0.93
2023-03-19T02:11:01.412Z,-0.83
2023-03-19T02:13:28.532Z,-0.89
2023-03-19T02:15:55.385Z,-0.72
2023-03-19T02:18:22.658Z,-0.73
2023-03-19T02:20:59.235Z,-0.53
2023-03-19T02:23:51.990Z,-0.50
2023-03-19T02:26:21.723Z,-0.44
2023-03-19T02:28:49.841Z,-0.22
2023-03-19T02:31:18.349Z,0.08
2023-03-19T02:33:45.572Z,0.49
2023-03-19T02:36:17.435Z,0.19
2023-03-19T02:38:46.549Z,0.02
2023-03-19T02:41:13.165Z,-0.24
2023-03-19T02:43:41.367Z,-0.43
2023-03-19T02:46:12.144Z,-0.38
2023-03-19T02:48:39.464Z,-0.46
2023-03-19T02:51:06.902Z,-0.72
2023-03-19T02:53:35.109Z,-0.67
2023-03-19T02:56:02.276Z,-0.80
2023-03-19T02:58:28.905Z,-0.82
2023-03-19T03:00:55.571Z,-0.90
2023-03-19T03:03:22.273Z,-0.98
2023-03-19T03:05:48.867Z,-1.03
2023-03-19T03:08:15.838Z,-0.99
2023-03-19T03:10:42.728Z,-0.95
2023-03-19T03:13:09.513Z,-1.06
2023-03-19T03:15:36.267Z,-1.06
2023-03-19T03:18:03.113Z,-1.07
2023-03-19T03:20:30.019Z,-1.17
2023-03-19T03:22:56.607Z,-1.12
2023-03-19T03:25:23.513Z,-1.20
2023-03-19T03:27:50.134Z,-1.12
2023-03-19T03:30:17.090Z,-1.20
2023-03-19T03:32:44.286Z,-1.25
2023-03-19T03:35:10.942Z,-1.23
2023-03-19T03:37:38.201Z,-1.23
2023-03-19T03:40:08.505Z,-1.18
2023-03-19T03:42:37.358Z,-1.28
2023-03-19T03:45:04.946Z,-1.29
2023-03-19T03:47:31.609Z,-1.30
2023-03-19T03:49:58.506Z,-1.17
2023-03-19T03:52:25.126Z,-1.17
2023-03-19T03:54:51.789Z,-1.02
2023-03-19T03:57:18.397Z,-1.08
2023-03-19T03:59:44.974Z,-0.99
2023-03-19T04:02:11.726Z,-0.87
2023-03-19T04:04:38.484Z,-1.04
2023-03-19T04:07:05.268Z,-0.98
2023-03-19T04:09:32.197Z,-1.05
2023-03-19T04:11:58.892Z,-1.05
2023-03-19T04:14:25.588Z,-1.20
2023-03-19T04:16:52.296Z,-1.13
2023-03-19T04:19:19.274Z,-0.95
2023-03-19T04:21:46.839Z,-0.96
2023-03-19T04:24:14.392Z,-0.97
2023-03-19T04:26:41.164Z,-1.02
2023-03-19T04:29:10.992Z,-0.95
2023-03-19T04:31:38.208Z,-0.97
2023-03-19T04:34:05.955Z,-1.03
2023-03-19T04:36:33.228Z,-0.99
2023-03-19T04:39:00.005Z,-1.04
2023-03-19T04:41:27.155Z,-1.18
2023-03-19T04:43:53.758Z,-1.19
2023-03-19T04:46:20.556Z,-1.13
2023-03-19T04:48:47.226Z,-1.06
2023-03-19T04:51:13.869Z,-1.05
2023-03-19T04:53:40.837Z,-0.81
2023-03-19T04:56:08.111Z,-0.81
2023-03-19T04:58:35.268Z,-0.93
2023-03-19T05:01:02.190Z,-0.77
2023-03-19T05:03:28.984Z,-0.65
2023-03-19T05:05:55.559Z,-0.43
2023-03-19T05:08:22.299Z,-0.28
2023-03-19T05:10:48.860Z,-0.25
2023-03-19T05:13:16.107Z,-0.09
2023-03-19T05:15:44.266Z,-0.11
2023-03-19T05:18:11.951Z,-0.16
2023-03-19T05:20:39.540Z,-0.07
2023-03-19T05:23:06.573Z,-0.18
2023-03-19T05:25:35.405Z,-0.10
2023-03-19T05:28:03.352Z,0.30
2023-03-19T05:30:30.836Z,0.65
2023-03-19T05:32:59.726Z,2.14
2023-03-19T05:35:29.372Z,2.46
2023-03-19T05:37:56.328Z,3.01
2023-03-19T05:40:23.956Z,2.92
2023-03-19T05:42:51.201Z,2.80
2023-03-19T05:45:18.420Z,3.03
2023-03-19T05:47:48.600Z,2.97
2023-03-19T05:50:15.324Z,3.36
2023-03-19T05:52:42.167Z,2.89
2023-03-19T05:55:09.672Z,3.18
2023-03-19T05:57:36.481Z,2.80
2023-03-19T06:00:06.658Z,2.17
2023-03-19T06:02:34.863Z,2.31
2023-03-19T06:05:01.829Z,1.79
2023-03-19T06:07:28.563Z,1.93
2023-03-19T06:09:55.311Z,1.87
2023-03-19T06:12:22.214Z,2.41
2023-03-19T06:14:48.823Z,2.57
2023-03-19T06:17:15.906Z,3.06
2023-03-19T06:19:42.583Z,3.13
2023-03-19T06:22:09.232Z,3.24
2023-03-19T06:24:36.798Z,3.40
2023-03-19T06:27:03.918Z,3.42
2023-03-19T06:29:30.790Z,3.57
2023-03-19T06:31:58.256Z,3.64
2023-03-19T06:34:25.505Z,3.82
2023-03-19T06:36:53.799Z,4.05
2023-03-19T06:39:21.191Z,3.82
2023-03-19T06:41:47.969Z,3.97
2023-03-19T06:44:14.973Z,3.72
2023-03-19T06:46:41.751Z,4.06
2023-03-19T06:49:08.393Z,4.21
2023-03-19T06:51:34.995Z,3.79
2023-03-19T06:54:01.669Z,3.73
2023-03-19T06:56:29.447Z,3.99
2023-03-19T06:58:56.561Z,4.07
2023-03-19T07:01:23.536Z,4.13
2023-03-19T07:03:50.627Z,4.12
2023-03-19T07:06:17.371Z,4.37
2023-03-19T07:08:46.468Z,4.31
2023-03-19T07:11:14.430Z,3.95
2023-03-19T07:13:41.252Z,4.39
2023-03-19T07:16:08.858Z,4.44
2023-03-19T07:18:36.063Z,4.61
2023-03-19T07:21:03.258Z,4.64
2023-03-19T07:23:30.023Z,4.85
2023-03-19T07:25:56.890Z,4.99
2023-03-19T07:28:23.500Z,4.97
2023-03-19T07:30:53.116Z,4.99
2023-03-19T07:33:22.035Z,4.99
2023-03-19T07:35:49.083Z,5.18
2023-03-19T07:38:15.863Z,5.40
2023-03-19T07:40:51.401Z,6.12
2023-03-19T07:43:25.806Z,6.80
2023-03-19T07:45:52.904Z,6.84
2023-03-19T07:48:19.826Z,7.13
2023-03-19T07:50:46.537Z,7.19
2023-03-19T07:53:13.166Z,7.18
2023-03-19T07:55:39.892Z,7.17
2023-03-19T07:58:06.536Z,6.62
2023-03-19T08:00:33.533Z,6.45
2023-03-19T08:03:00.454Z,6.57
2023-03-19T08:05:27.307Z,6.46
2023-03-19T08:07:53.957Z,6.40
2023-03-19T08:10:20.733Z,6.08
2023-03-19T08:12:47.908Z,6.33
2023-03-19T08:15:14.807Z,6.36
2023-03-19T08:17:41.651Z,6.40
2023-03-19T08:20:16.572Z,6.49
2023-03-19T08:22:43.322Z,6.77
2023-03-19T08:25:10.730Z,6.71
2023-03-19T08:27:37.463Z,7.17
2023-03-19T08:30:06.395Z,6.86
2023-03-19T08:32:33.254Z,6.63
2023-03-19T08:35:00.393Z,6.79
2023-03-19T08:37:27.034Z,7.01
2023-03-19T08:39:53.983Z,7.36
2023-03-19T08:42:21.596Z,7.48
2023-03-19T08:44:48.973Z,7.38
2023-03-19T08:47:15.963Z,7.50
2023-03-19T08:49:42.670Z,7.58
2023-03-19T08:52:09.630Z,7.87
2023-03-19T08:54:36.953Z,8.16
2023-03-19T08:57:03.923Z,8.27
2023-03-19T08:59:33.775Z,8.22
2023-03-19T09:02:01.616Z,8.51
2023-03-19T09:04:28.862Z,8.50
2023-03-19T09:06:55.957Z,8.65
2023-03-19T09:09:24.632Z,8.70
2023-03-19T09:11:51.443Z,8.86
2023-03-19T09:14:20.112Z,9.18
2023-03-19T09:16:47.053Z,9.26
2023-03-19T09:19:13.804Z,9.07
2023-03-19T09:21:40.739Z,8.97
2023-03-19T09:24:07.651Z,9.14
2023-03-19T09:26:34.656Z,9.02
2023-03-19T09:29:02.240Z,9.58
2023-03-19T09:31:29.996Z,9.91
2023-03-19T09:33:57.066Z,10.10
2023-03-19T09:36:23.958Z,9.67
2023-03-19T09:38:50.753Z,10.13
2023-03-19T09:41:33.751Z,10.50
2023-03-19T09:44:16.291Z,10.40
2023-03-19T09:47:12.503Z,10.56
2023-03-19T09:49:44.241Z,10.55
2023-03-19T09:52:24.988Z,10.54
2023-03-19T09:54:55.207Z,10.42
2023-03-19T09:57:21.927Z,10.79
2023-03-19T09:59:49.213Z,10.74
2023-03-19T10:02:21.998Z,11.08
2023-03-19T10:05:09.696Z,11.34
2023-03-19T10:08:04.507Z,11.59
2023-03-19T10:10:49.788Z,11.93
2023-03-19T10:13:28.506Z,11.99
2023-03-19T10:15:56.181Z,12.17
2023-03-19T10:18:33.091Z,12.30
2023-03-19T10:21:05.763Z,12.37
2023-03-19T10:23:57.879Z,12.45
2023-03-19T10:26:30.441Z,12.73
2023-03-19T10:29:04.758Z,12.70
2023-03-19T10:31:52.504Z,12.78
2023-03-19T10:34:35.768Z,12.99
2023-03-19T10:37:14.632Z,12.84
2023-03-19T10:39:43.838Z,12.64
2023-03-19T10:42:37.983Z,12.49
2023-03-19T10:45:34.918Z,12.81
2023-03-19T10:48:03.715Z,12.92
2023-03-19T10:50:37.566Z,13.28
2023-03-19T10:53:37.086Z,13.39
2023-03-19T10:56:20.360Z,13.67
2023-03-19T10:59:05.962Z,13.38
2023-03-19T11:01:43.167Z,13.93
2023-03-19T11:04:23.242Z,14.30
2023-03-19T11:06:52.234Z,14.42
2023-03-19T11:09:29.484Z,13.78
2023-03-19T11:12:07.099Z,13.86
2023-03-19T11:14:44.626Z,13.92
2023-03-19T11:17:14.233Z,14.32
2023-03-19T11:19:42.558Z,14.22
2023-03-19T11:22:21.406Z,13.68
2023-03-19T11:25:01.584Z,13.68
2023-03-19T11:27:34.973Z,14.02
2023-03-19T11:30:22.131Z,14.38
2023-03-19T11:32:58.083Z,14.71
2023-03-19T11:35:55.760Z,14.63
2023-03-19T11:38:58.703Z,14.74
2023-03-19T11:41:43.865Z,14.74
2023-03-19T11:44:31.187Z,15.03
2023-03-19T11:47:26.221Z,14.77
2023-03-19T11:50:18.225Z,14.60
2023-03-19T11:52:48.929Z,14.50
2023-03-19T11:55:25.727Z,14.55
2023-03-19T11:57:55.383Z,14.32
2023-03-19T12:00:43.443Z,14.34
2023-03-19T12:03:44.116Z,14.56
2023-03-19T12:06:28.579Z,14.53
2023-03-19T12:09:21.590Z,14.69
2023-03-19T12:12:19.132Z,15.18
2023-03-19T12:14:53.335Z,15.52
2023-03-19T12:17:38.944Z,15.58
2023-03-19T12:20:36.501Z,15.61
2023-03-19T12:23:24.252Z,15.92
2023-03-19T12:26:04.659Z,15.36
2023-03-19T12:28:40.637Z,15.12
2023-03-19T12:31:10.650Z,15.71
2023-03-19T12:33:48.491Z,16.10
2023-03-19T12:36:26.399Z,15.96
2023-03-19T12:39:07.145Z,16.29
2023-03-19T12:41:40.076Z,16.40
2023-03-19T12:44:17.183Z,16.33
2023-03-19T12:46:59.307Z,16.38
2023-03-19T12:49:35.286Z,16.34
2023-03-19T12:52:19.123Z,15.99
2023-03-19T12:54:55.450Z,16.31
2023-03-19T12:57:38.657Z,16.85
2023-03-19T13:00:37.761Z,17.28
2023-03-19T13:03:18.928Z,17.47
2023-03-19T13:06:06.031Z,17.78
2023-03-19T13:08:58.017Z,17.92
2023-03-19T13:11:30.724Z,17.74
2023-03-19T13:14:04.260Z,17.35
2023-03-19T13:16:39.842Z,17.47
2023-03-19T13:19:32.472Z,17.53
2023-03-19T13:22:04.251Z,17.53
2023-03-19T13:24:38.817Z,17.72
2023-03-19T13:27:10.261Z,17.44
2023-03-19T13:29:39.125Z,17.49
2023-03-19T13:32:23.772Z,17.66
2023-03-19T13:34:50.624Z,17.78
2023-03-19T13:37:19.992Z,17.68
2023-03-19T13:39:48.632Z,17.88
2023-03-19T13:42:38.820Z,17.82
2023-03-19T13:45:34.693Z,17.56
2023-03-19T13:48:27.461Z,17.43
2023-03-19T13:51:28.031Z,17.16
2023-03-19T13:54:01.313Z,17.09
2023-03-19T13:56:30.576Z,17.43
2023-03-19T13:59:15.794Z,17.45
2023-03-19T14:01:47.587Z,17.52
2023-03-19T14:04:23.562Z,17.45
2023-03-19T14:07:12.599Z,17.62
2023-03-19T14:09:44.948Z,17.85
2023-03-19T14:12:23.375Z,17.97
2023-03-19T14:15:01.350Z,17.83
2023-03-19T14:17:35.650Z,17.90
2023-03-19T14:20:32.948Z,17.90
2023-03-19T14:23:03.753Z,17.86
2023-03-19T14:26:06.557Z,17.85
2023-03-19T14:28:45.247Z,17.90
2023-03-19T14:31:20.360Z,17.65
2023-03-19T14:34:02.884Z,17.40
2023-03-19T14:36:30.859Z,17.75
2023-03-19T14:39:00.760Z,18.05
2023-03-19T14:41:32.740Z,18.00
2023-03-19T14:44:11.463Z,18.59
2023-03-19T14:47:17.121Z,18.09
2023-03-19T14:49:56.050Z,17.82
2023-03-19T14:52:25.860Z,18.04
2023-03-19T14:55:02.830Z,17.78
2023-03-19T14:57:35.450Z,17.72
2023-03-19T15:00:10.011Z,17.82
2023-03-19T15:02:51.746Z,17.64
2023-03-19T15:05:36.383Z,17.38
2023-03-19T15:08:05.906Z,17.63
2023-03-19T15:10:56.086Z,17.46
2023-03-19T15:14:00.399Z,17.47
2023-03-19T15:16:37.302Z,17.83
2023-03-19T15:19:07.312Z,17.79
2023-03-19T15:21:34.320Z,17.31
2023-03-19T15:24:00.991Z,16.97
2023-03-19T15:26:33.128Z,16.91
2023-03-19T15:29:00.200Z,17.00
2023-03-19T15:31:53.861Z,17.06
2023-03-19T15:34:29.736Z,17.13
2023-03-19T15:37:08.149Z,17.01
2023-03-19T15:39:40.061Z,17.10
2023-03-19T15:42:06.776Z,17.22
2023-03-19T15:44:46.334Z,16.96
2023-03-19T15:47:19.822Z,16.83
2023-03-19T15:50:14.373Z,16.95
2023-03-19T15:52:46.260Z,16.65
2023-03-19T15:55:15.679Z,16.71
2023-03-19T15:57:44.411Z,16.90
2023-03-19T16:00:14.135Z,17.05
2023-03-19T16:02:43.685Z,16.95
2023-03-19T16:05:43.505Z,17.01
2023-03-19T16:08:26.026Z,16.97
2023-03-19T16:10:53.342Z,16.74
2023-03-19T16:13:22.982Z,16.70
2023-03-19T16:16:06.052Z,16.47
2023-03-19T16:18:53.147Z,16.25
2023-03-19T16:21:38.784Z,16.09
2023-03-19T16:24:08.287Z,15.96
2023-03-19T16:26:43.567Z,15.71
2023-03-19T16:29:16.819Z,15.65
2023-03-19T16:31:58.529Z,15.49
2023-03-19T16:34:34.044Z,15.35
2023-03-19T16:37:01.430Z,15.14
2023-03-19T16:39:34.516Z,14.98
2023-03-19T16:42:13.263Z,14.66
2023-03-19T16:44:46.802Z,14.57
2023-03-19T16:47:16.564Z,14.36
2023-03-19T16:49:43.278Z,14.25
2023-03-19T16:52:15.902Z,13.99
2023-03-19T16:54:43.052Z,13.94
2023-03-19T16:57:15.374Z,13.34
2023-03-19T16:59:42.769Z,13.68
2023-03-19T17:02:14.133Z,13.55
2023-03-19T17:04:42.528Z,13.48
2023-03-19T17:07:10.039Z,13.44
2023-03-19T17:09:37.561Z,13.33
2023-03-19T17:12:06.809Z,13.29
2023-03-19T17:14:34.042Z,12.99
2023-03-19T17:17:01.195Z,13.05
2023-03-19T17:19:34.482Z,12.95
2023-03-19T17:22:01.644Z,12.87
2023-03-19T17:24:33.682Z,12.87
2023-03-19T17:27:03.183Z,12.83
2023-03-19T17:29:30.827Z,12.79
2023-03-19T17:32:01.913Z,12.58
2023-03-19T17:34:33.305Z,12.53
2023-03-19T17:37:02.248Z,12.47
2023-03-19T17:39:32.970Z,12.42
2023-03-19T17:41:59.895Z,12.36
2023-03-19T17:44:27.992Z,12.23
2023-03-19T17:46:56.482Z,12.14
2023-03-19T17:49:32.699Z,12.06
2023-03-19T17:51:59.725Z,11.99
2023-03-19T17:54:27.274Z,11.88
2023-03-19T17:56:55.026Z,11.65
2023-03-19T17:59:22.367Z,11.54
2023-03-19T18:01:49.203Z,11.37
2023-03-19T18:04:21.297Z,11.17
2023-03-19T18:06:56.736Z,11.09
2023-03-19T18:09:28.322Z,11.00
2023-03-19T18:11:55.200Z,10.87
2023-03-19T18:14:21.973Z,10.86
2023-03-19T18:16:48.840Z,10.76
2023-03-19T18:19:27.953Z,10.72
2023-03-19T18:21:54.552Z,10.43
2023-03-19T18:24:21.341Z,10.08
2023-03-19T18:26:48.114Z,10.03
2023-03-19T18:29:16.443Z,9.92
2023-03-19T18:31:49.496Z,9.88
2023-03-19T18:34:17.628Z,9.80
2023-03-19T18:36:44.480Z,9.68
2023-03-19T18:39:14.124Z,9.57
2023-03-19T18:41:41.654Z,9.57
2023-03-19T18:44:09.258Z,9.50
2023-03-19T18:46:38.206Z,9.49
2023-03-19T18:49:14.689Z,9.47
2023-03-19T18:51:54.883Z,9.39
2023-03-19T18:54:27.759Z,9.36
2023-03-19T18:56:56.246Z,9.22
2023-03-19T18:59:27.961Z,9.13
2023-03-19T19:02:14.899Z,9.09
2023-03-19T19:04:41.898Z,9.06
2023-03-19T19:07:13.812Z,8.90
2023-03-19T19:09:40.512Z,8.94
2023-03-19T19:12:09.467Z,8.90
2023-03-19T19:14:36.499Z,8.86
2023-03-19T19:17:03.364Z,8.83
2023-03-19T19:19:30.005Z,8.78
2023-03-19T19:21:56.892Z,8.71
2023-03-19T19:24:23.729Z,8.57
2023-03-19T19:26:53.892Z,8.49
2023-03-19T19:29:26.661Z,8.45
2023-03-19T19:31:54.657Z,8.44
2023-03-19T19:34:22.597Z,8.33
2023-03-19T19:36:51.037Z,8.29
2023-03-19T19:39:18.319Z,8.32
2023-03-19T19:41:46.777Z,8.28
2023-03-19T19:44:21.938Z,8.25
2023-03-19T19:46:50.491Z,8.23
2023-03-19T19:49:22.618Z,8.14
2023-03-19T19:51:49.556Z,8.10
2023-03-19T19:54:16.414Z,8.06
2023-03-19T19:56:43.494Z,7.96
2023-03-19T19:59:14.866Z,8.08
2023-03-19T20:01:41.610Z,7.97
2023-03-19T20:04:13.926Z,8.02
2023-03-19T20:06:40.626Z,8.06
2023-03-19T20:09:08.045Z,8.03
2023-03-19T20:11:34.847Z,8.03
2023-03-19T20:14:02.050Z,7.99
2023-03-19T20:16:28.848Z,8.09
2023-03-19T20:18:55.792Z,8.07
2023-03-19T20:21:23.112Z,8.08
2023-03-19T20:23:55.711Z,7.97
2023-03-19T20:26:24.853Z,7.85
2023-03-19T20:28:52.175Z,7.97
2023-03-19T20:31:29.937Z,7.96
2023-03-19T20:33:57.826Z,7.92
2023-03-19T20:36:24.671Z,7.89
2023-03-19T20:38:52.679Z,7.86
2023-03-19T20:41:24.545Z,7.80
2023-03-19T20:43:51.934Z,7.77
2023-03-19T20:46:20.583Z,7.71
2023-03-19T20:48:48.117Z,7.60
2023-03-19T20:51:33.271Z,7.60
2023-03-19T20:54:00.135Z,7.52
2023-03-19T20:56:27.192Z,7.53
2023-03-19T20:58:53.918Z,7.55
2023-03-19T21:01:21.776Z,7.84
2023-03-19T21:03:48.502Z,7.96
2023-03-19T21:06:21.270Z,7.93
2023-03-19T21:08:51.670Z,7.83
2023-03-19T21:11:21.292Z,8.05
2023-03-19T21:13:50.069Z,8.23
2023-03-19T21:16:22.920Z,8.23
2023-03-19T21:18:50.051Z,8.10
2023-03-19T21:21:17.756Z,8.16
2023-03-19T21:23:54.344Z,7.93
2023-03-19T21:26:24.295Z,7.84
2023-03-19T21:29:00.325Z,7.80
2023-03-19T21:31:27.433Z,7.79
2023-03-19T21:33:55.844Z,7.71
2023-03-19T21:36:23.852Z,7.74
2023-03-19T21:38:52.550Z,7.50
2023-03-19T21:41:26.100Z,7.36
2023-03-19T21:43:56.266Z,7.15
2023-03-19T21:46:29.657Z,6.92
2023-03-19T21:48:57.916Z,6.80
2023-03-19T21:51:26.668Z,6.68
2023-03-19T21:53:53.259Z,6.49
2023-03-19T21:56:25.585Z,6.40
2023-03-19T21:58:52.802Z,6.26
2023-03-19T22:01:23.713Z,6.00
2023-03-19T22:03:54.958Z,5.90
2023-03-19T22:06:22.171Z,5.78
2023-03-19T22:08:49.022Z,5.62
2023-03-19T22:11:20.128Z,5.49
2023-03-19T22:13:47.653Z,5.45
2023-03-19T22:16:23.225Z,5.44
2023-03-19T22:18:50.831Z,5.34
2023-03-19T22:21:20.846Z,5.39
2023-03-19T22:23:47.990Z,5.39
2023-03-19T22:26:30.891Z,5.35
2023-03-19T22:29:00.774Z,5.31
2023-03-19T22:31:27.891Z,5.34
2023-03-19T22:33:54.870Z,5.30
2023-03-19T22:36:21.524Z,5.27
2023-03-19T22:38:49.410Z,5.21
2023-03-19T22:41:27.381Z,5.21
2023-03-19T22:43:54.924Z,5.00
2023-03-19T22:46:22.155Z,4.99
2023-03-19T22:48:52.896Z,4.77
2023-03-19T22:51:22.652Z,4.60
2023-03-19T22:53:49.894Z,4.58
2023-03-19T22:56:17.521Z,4.56
2023-03-19T22:58:44.411Z,4.59
2023-03-19T23:01:23.629Z,4.56
2023-03-19T23:03:51.027Z,4.42
2023-03-19T23:06:29.639Z,4.49
2023-03-19T23:08:57.848Z,4.65
2023-03-19T23:11:24.616Z,4.71
2023-03-19T23:13:51.666Z,4.79
2023-03-19T23:16:23.989Z,4.74
2023-03-19T23:18:51.437Z,4.70
2023-03-19T23:21:19.494Z,4.75
2023-03-19T23:23:46.822Z,4.85
2023-03-19T23:26:30.170Z,4.80
2023-03-19T23:28:59.990Z,4.85
2023-03-19T23:31:26.615Z,4.95
2023-03-19T23:33:53.461Z,5.02
2023-03-19T23:36:20.485Z,5.04
2023-03-19T23:38:47.574Z,4.87
2023-03-19T23:41:22.436Z,4.94
2023-03-19T23:43:49.081Z,5.03
2023-03-19T23:46:16.122Z,5.10
2023-03-19T23:48:42.763Z,5.18
2023-03-19T23:51:14.300Z,5.12
2023-03-19T23:53:42.105Z,5.10
2023-03-19T23:56:22.642Z,5.05
2023-03-19T23:58:51.625Z,4.98
